Time;durP1;ratioP1;P1;durP2;ratioP2;P2;SDS_P1;SDS_P2;PMS_P1;PMS_P2;Temp;Humidity;BMP_temperature;BMP_pressure;BME280_temperature;BME280_humidity;BME280_pressure;Samples;Min_cycle;Max_cycle;Signal;HPM_P1;HPM_P2
2022/11/13 00:00:15;;;;;;;9.68;5.78;;;;;;;20.08;45.53;102905.41;5089363;28;20054;-70
2022/11/13 00:03:00;;;;;;;8.20;6.55;;;;;;;20.07;45.59;102914.31;5095776;28;20109;-70
2022/11/13 00:05:44;;;;;;;7.38;5.82;;;;;;;20.04;45.69;102905.81;5089323;28;20412;-70
2022/11/13 00:08:27;;;;;;;8.60;6.57;;;;;;;20.16;45.31;102918.00;5089704;28;20550;-70
2022/11/13 00:11:17;;;;;;;8.82;5.88;;;;;;;20.07;45.42;102919.59;5086943;28;20104;-70
2022/11/13 00:14:01;;;;;;;9.30;6.53;;;;;;;20.12;45.55;102913.94;5090494;28;20050;-70
2022/11/13 00:16:45;;;;;;;11.65;6.50;;;;;;;20.07;45.49;102906.38;5094493;28;20097;-70
2022/11/13 00:19:29;;;;;;;10.00;5.85;;;;;;;20.03;45.49;102918.19;5093942;28;20046;-70
2022/11/13 00:22:14;;;;;;;8.32;6.40;;;;;;;20.01;45.56;102909.56;5089625;28;20177;-70
2022/11/13 00:24:58;;;;;;;9.05;6.05;;;;;;;19.99;45.55;102906.19;5097039;28;20054;-71
2022/11/13 00:27:42;;;;;;;9.30;6.35;;;;;;;20.05;45.45;102908.31;5090392;28;20057;-70
2022/11/13 00:30:26;;;;;;;9.73;6.90;;;;;;;20.02;45.53;102910.38;5091848;28;20184;-70
2022/11/13 00:33:10;;;;;;;8.18;6.43;;;;;;;19.98;45.63;102899.25;5092909;28;20050;-70
2022/11/13 00:36:01;;;;;;;8.70;6.15;;;;;;;20.05;45.20;102900.38;5097670;28;20047;-70
2022/11/13 00:38:46;;;;;;;10.27;6.97;;;;;;;20.03;45.46;102897.03;5094275;28;20085;-70
2022/11/13 00:41:29;;;;;;;10.00;6.95;;;;;;;20.00;45.42;102893.81;5090457;28;20167;-70
2022/11/13 00:44:13;;;;;;;10.20;6.40;;;;;;;19.92;45.61;102895.28;5089636;28;20622;-70
2022/11/13 00:46:57;;;;;;;10.18;6.28;;;;;;;19.97;45.39;102891.44;5094894;28;20477;-70
2022/11/13 00:49:41;;;;;;;8.23;5.70;;;;;;;20.08;45.05;102899.28;5091921;28;20112;-70
2022/11/13 00:52:25;;;;;;;9.10;6.03;;;;;;;19.81;45.49;102868.09;5093110;28;20051;-70
2022/11/13 00:55:11;;;;;;;8.15;5.85;;;;;;;19.95;45.46;102891.56;5083794;28;21786;-70
2022/11/13 00:57:55;;;;;;;8.77;6.32;;;;;;;19.98;45.44;102885.19;5093005;28;20058;-70
2022/11/13 01:00:41;;;;;;;8.82;6.40;;;;;;;19.94;45.51;102889.06;5095488;28;20582;-70
2022/11/13 01:03:24;;;;;;;9.50;6.43;;;;;;;19.95;45.53;102896.03;5093357;28;20096;-70
2022/11/13 01:06:17;;;;;;;8.10;6.03;;;;;;;19.98;45.41;102890.47;5096949;28;20045;-70
2022/11/13 01:09:02;;;;;;;10.50;6.40;;;;;;;19.92;45.58;102881.22;5096973;28;20063;-70
2022/11/13 01:11:46;;;;;;;8.60;5.90;;;;;;;19.99;45.32;102889.50;5087477;28;20110;-70
2022/11/13 01:14:29;;;;;;;9.18;6.05;;;;;;;19.92;45.45;102874.13;5091281;28;20085;-70
2022/11/13 01:17:13;;;;;;;9.48;6.05;;;;;;;19.98;45.57;102877.25;5094129;28;20140;-70
2022/11/13 01:19:57;;;;;;;8.65;5.88;;;;;;;19.99;45.39;102877.13;5090375;28;20089;-70
2022/11/13 01:22:41;;;;;;;7.80;6.07;;;;;;;20.00;45.23;102876.13;5094174;28;20101;-70
2022/11/13 01:25:26;;;;;;;9.18;6.75;;;;;;;19.94;45.44;102874.03;5095329;28;20046;-70
2022/11/13 01:28:10;;;;;;;11.05;6.63;;;;;;;19.90;45.35;102862.84;5088414;28;20096;-70
2022/11/13 01:30:54;;;;;;;9.10;6.15;;;;;;;19.92;45.36;102860.91;5089885;28;20054;-70
2022/11/13 01:33:38;;;;;;;8.73;6.25;;;;;;;19.86;45.53;102860.63;5096137;28;20058;-70
2022/11/13 01:36:25;;;;;;;8.93;5.43;;;;;;;19.92;45.39;102850.34;5089294;28;20098;-70
2022/11/13 01:39:11;;;;;;;8.73;5.93;;;;;;;19.91;45.38;102851.31;5093244;28;20508;-70
2022/11/13 01:41:55;;;;;;;10.68;5.95;;;;;;;19.97;45.29;102849.13;5097590;28;20055;-70
2022/11/13 01:44:46;;;;;;;7.80;5.90;;;;;;;19.90;45.50;102848.78;5095034;28;20080;-70
2022/11/13 01:47:30;;;;;;;9.82;6.75;;;;;;;19.86;45.54;102840.28;5095026;28;20051;-70
2022/11/13 01:50:14;;;;;;;9.52;6.70;;;;;;;19.89;45.36;102832.09;5089897;28;20055;-70
2022/11/13 01:52:58;;;;;;;7.93;6.05;;;;;;;19.87;45.49;102826.09;5097743;28;20050;-70
2022/11/13 01:55:42;;;;;;;7.60;6.28;;;;;;;19.81;45.55;102826.66;5087366;28;20140;-70
2022/11/13 01:58:26;;;;;;;9.20;6.22;;;;;;;19.85;45.50;102828.03;5090284;28;20607;-70
2022/11/13 02:01:11;;;;;;;9.05;5.72;;;;;;;19.91;45.34;102819.56;5089881;28;20070;-70
2022/11/13 02:03:55;;;;;;;8.65;6.22;;;;;;;19.90;45.50;102817.06;5098270;28;20156;-70
2022/11/13 02:06:44;;;;;;;9.13;5.90;;;;;;;19.90;45.29;102811.78;5088400;28;20558;-70
2022/11/13 02:09:32;;;;;;;;;;;;;;;19.86;45.46;102811.22;5084420;28;20108;-70
2022/11/13 02:12:23;;;;;;;10.93;6.60;;;;;;;19.86;45.35;102803.28;5095666;28;19965;-70
2022/11/13 02:15:08;;;;;;;8.52;6.15;;;;;;;19.97;45.19;102804.19;5090321;28;20065;-70
2022/11/13 02:17:55;;;;;;;8.48;5.97;;;;;;;19.91;45.19;102795.78;5096475;28;20126;-70
2022/11/13 02:21:02;;;;;;;9.43;6.00;;;;;;;19.89;45.51;102795.09;5089573;28;20116;-70
2022/11/13 02:24:12;;;;;;;9.70;5.97;;;;;;;19.89;45.33;102778.38;5056403;28;20062;-71
2022/11/13 02:27:02;;;;;;;8.38;6.03;;;;;;;19.85;45.30;102769.03;5088069;28;20444;-70
2022/11/13 02:29:46;;;;;;;9.68;6.25;;;;;;;19.81;45.50;102771.13;5089609;28;20602;-70
2022/11/13 02:32:30;;;;;;;9.23;5.78;;;;;;;19.86;45.12;102766.28;5089409;28;20132;-70
2022/11/13 02:35:17;;;;;;;8.20;6.32;;;;;;;19.86;45.49;102768.06;5095602;28;20135;-70
2022/11/13 02:38:04;;;;;;;9.52;6.65;;;;;;;19.98;45.10;102768.81;5090249;28;20086;-70
2022/11/13 02:40:48;;;;;;;8.68;6.53;;;;;;;19.88;45.21;102760.84;5093161;28;20566;-70
2022/11/13 02:43:32;;;;;;;9.07;6.63;;;;;;;19.90;45.31;102772.13;5090778;28;20151;-70
2022/11/13 02:46:16;;;;;;;10.60;6.35;;;;;;;19.82;45.50;102756.09;5090600;28;20406;-70
2022/11/13 02:49:00;;;;;;;8.45;6.13;;;;;;;19.86;45.37;102757.50;5087827;28;20050;-70
2022/11/13 02:51:44;;;;;;;10.30;6.50;;;;;;;19.83;45.44;102755.13;5092084;28;20075;-70
2022/11/13 02:54:28;;;;;;;8.18;6.35;;;;;;;19.85;45.33;102756.66;5088804;28;20618;-70
2022/11/13 02:57:12;;;;;;;9.55;6.70;;;;;;;19.89;45.20;102754.59;5091495;28;20827;-70
2022/11/13 02:59:55;;;;;;;8.00;5.63;;;;;;;19.84;45.24;102751.50;5086112;28;20428;-70
2022/11/13 03:02:40;;;;;;;9.27;6.78;;;;;;;19.85;45.28;102751.38;5093592;28;20050;-70
2022/11/13 03:05:24;;;;;;;10.07;5.78;;;;;;;19.80;45.54;102753.59;5090330;28;20073;-70
2022/11/13 03:08:08;;;;;;;9.60;6.47;;;;;;;19.73;45.58;102752.44;5087855;28;20129;-70
2022/11/13 03:10:53;;;;;;;8.95;6.03;;;;;;;19.86;45.27;102763.63;5091748;28;20209;-70
2022/11/13 03:13:38;;;;;;;9.00;6.35;;;;;;;19.77;45.43;102776.81;5087512;28;21597;-70
2022/11/13 03:16:22;;;;;;;8.10;6.28;;;;;;;19.78;45.38;102776.69;5088102;28;20082;-70
2022/11/13 03:19:06;;;;;;;10.85;5.88;;;;;;;19.81;45.32;102784.34;5089363;28;20055;-70
2022/11/13 03:21:50;;;;;;;7.55;5.75;;;;;;;19.83;45.23;102779.75;5088317;28;20070;-70
2022/11/13 03:24:33;;;;;;;8.13;5.82;;;;;;;19.72;45.50;102781.63;5086728;28;20070;-70
2022/11/13 03:27:18;;;;;;;6.63;5.88;;;;;;;19.72;45.53;102773.72;5090069;28;20507;-70
2022/11/13 03:30:04;;;;;;;7.85;5.95;;;;;;;19.75;45.52;102776.09;5083035;28;20062;-70
2022/11/13 03:32:52;;;;;;;9.48;6.45;;;;;;;19.72;45.59;102771.06;5089569;28;20047;-70
2022/11/13 03:35:36;;;;;;;8.00;6.07;;;;;;;19.73;45.44;102757.72;5087428;28;20459;-70
2022/11/13 03:38:20;;;;;;;10.00;6.75;;;;;;;19.85;45.14;102763.75;5095423;28;20055;-70
2022/11/13 03:41:04;;;;;;;8.02;6.00;;;;;;;19.77;45.26;102764.44;5085270;28;20059;-72
2022/11/13 03:43:49;;;;;;;9.00;5.82;;;;;;;19.77;45.34;102759.16;5085645;28;20128;-73
2022/11/13 03:46:33;;;;;;;7.60;5.78;;;;;;;19.78;45.36;102757.34;5086312;28;20113;-73
2022/11/13 03:49:17;;;;;;;8.45;6.63;;;;;;;19.68;45.55;102754.63;5088634;28;20132;-73
2022/11/13 03:52:01;;;;;;;9.32;6.47;;;;;;;19.78;45.32;102760.00;5081889;28;20129;-73
2022/11/13 03:54:44;;;;;;;10.10;6.40;;;;;;;19.78;45.27;102773.19;5092579;28;20055;-72
2022/11/13 03:57:28;;;;;;;9.27;6.10;;;;;;;19.72;45.39;102768.44;5092801;28;20058;-73
2022/11/13 04:00:13;;;;;;;7.70;5.70;;;;;;;19.76;45.29;102773.34;5087035;28;20051;-73
2022/11/13 04:02:57;;;;;;;8.68;5.75;;;;;;;19.69;45.32;102763.41;5089293;28;20090;-73
2022/11/13 04:05:42;;;;;;;8.27;6.47;;;;;;;19.72;45.35;102773.72;5089167;28;20073;-72
2022/11/13 04:08:26;;;;;;;8.15;5.90;;;;;;;19.72;45.43;102771.91;5089298;28;20082;-72
2022/11/13 04:11:11;;;;;;;6.95;5.65;;;;;;;19.75;45.25;102754.94;5090924;28;20157;-73
2022/11/13 04:13:56;;;;;;;8.10;5.63;;;;;;;19.74;45.38;102754.09;5086628;28;20047;-73
2022/11/13 04:16:40;;;;;;;8.82;6.35;;;;;;;19.76;45.28;102756.63;5091594;28;20059;-72
2022/11/13 04:19:24;;;;;;;8.93;5.85;;;;;;;19.71;45.32;102759.66;5088553;28;20069;-73
2022/11/13 04:22:08;;;;;;;7.50;5.72;;;;;;;19.73;45.32;102747.13;5096019;28;20707;-73
2022/11/13 04:24:52;;;;;;;7.55;5.60;;;;;;;19.69;45.38;102740.44;5094613;28;20409;-72
2022/11/13 04:27:36;;;;;;;8.35;6.13;;;;;;;19.72;45.35;102742.81;5088951;28;20109;-72
2022/11/13 04:30:20;;;;;;;8.73;5.63;;;;;;;19.68;45.33;102738.78;5095126;28;20162;-73
2022/11/13 04:33:04;;;;;;;8.68;6.53;;;;;;;19.68;45.33;102737.94;5088388;28;20104;-72
2022/11/13 04:35:48;;;;;;;8.82;6.20;;;;;;;19.71;45.30;102732.38;5092202;28;20133;-73
2022/11/13 04:38:32;;;;;;;7.63;6.07;;;;;;;19.74;45.19;102734.75;5089536;28;20248;-72
2022/11/13 04:44:27;;;;;;;8.57;5.65;;;;;;;19.62;45.57;102734.03;5080442;28;20308;-72
2022/11/13 04:47:11;;;;;;;8.35;6.05;;;;;;;19.67;45.34;102734.47;5093208;28;20238;-72
2022/11/13 04:49:55;;;;;;;7.00;5.45;;;;;;;19.66;45.38;102727.50;5089962;28;20165;-73
2022/11/13 04:52:39;;;;;;;7.78;5.50;;;;;;;19.61;45.41;102727.91;5094544;28;20050;-72
2022/11/13 04:55:23;;;;;;;8.90;5.70;;;;;;;19.65;45.53;102732.94;5094871;28;20078;-72
2022/11/13 04:58:07;;;;;;;8.15;5.30;;;;;;;19.66;45.25;102724.88;5093284;28;20054;-72
2022/11/13 05:00:51;;;;;;;7.85;5.70;;;;;;;19.64;45.44;102729.44;5095409;28;20085;-72
2022/11/13 05:03:36;;;;;;;8.80;5.63;;;;;;;19.70;45.40;102722.78;5090350;28;20073;-72
2022/11/13 05:06:20;;;;;;;9.00;6.22;;;;;;;19.59;45.54;102726.38;5088490;28;20047;-72
2022/11/13 05:09:04;;;;;;;9.90;6.25;;;;;;;19.64;45.36;102724.16;5092300;28;20190;-73
2022/11/13 05:11:48;;;;;;;8.93;6.50;;;;;;;19.61;45.34;102716.50;5095087;28;20050;-73
2022/11/13 05:14:35;;;;;;;8.52;6.07;;;;;;;19.60;45.39;102722.75;5092487;28;20054;-73
2022/11/13 05:17:19;;;;;;;8.15;6.47;;;;;;;19.56;45.53;102722.16;5091447;28;20089;-72
2022/11/13 05:20:04;;;;;;;8.05;6.18;;;;;;;19.62;45.39;102726.09;5088685;28;20085;-72
2022/11/13 05:22:47;;;;;;;9.23;5.78;;;;;;;19.53;45.19;102717.13;5092209;28;20051;-73
2022/11/13 05:25:32;;;;;;;8.13;5.60;;;;;;;19.67;45.27;102728.34;5093527;28;20063;-72
2022/11/13 05:28:16;;;;;;;7.53;5.53;;;;;;;19.53;45.65;102724.22;5091652;28;20047;-73
2022/11/13 05:31:05;;;;;;;8.75;5.53;;;;;;;19.65;45.29;102717.91;5096037;28;20054;-73
2022/11/13 05:33:49;;;;;;;8.98;6.05;;;;;;;19.68;44.98;102707.06;5090672;28;20112;-73
2022/11/13 05:36:33;;;;;;;6.85;5.53;;;;;;;19.64;45.29;102708.31;5092413;28;20135;-73
2022/11/13 05:39:18;;;;;;;7.80;6.28;;;;;;;19.51;45.45;102712.94;5086878;28;20124;-73
2022/11/13 05:42:02;;;;;;;9.35;6.22;;;;;;;19.68;45.02;102706.22;5089591;28;20055;-73
2022/11/13 05:44:46;;;;;;;8.60;5.93;;;;;;;19.54;45.37;102702.97;5087470;28;20050;-73
2022/11/13 05:47:32;;;;;;;9.32;6.55;;;;;;;19.54;45.40;102697.69;5093087;28;20051;-72
2022/11/13 05:50:15;;;;;;;9.00;6.82;;;;;;;19.47;45.50;102693.03;5089645;28;20468;-72
2022/11/13 05:52:59;;;;;;;9.93;6.20;;;;;;;19.47;45.67;102695.69;5093686;28;20100;-73
2022/11/13 05:55:43;;;;;;;8.20;6.20;;;;;;;19.50;45.55;102683.03;5092527;28;20097;-73
2022/11/13 05:58:28;;;;;;;7.30;5.68;;;;;;;19.49;45.56;102680.53;5093463;28;20178;-73
2022/11/13 06:01:19;;;;;;;8.48;5.82;;;;;;;19.42;45.69;102679.41;5088960;28;20117;-73
2022/11/13 06:04:05;;;;;;;8.50;5.93;;;;;;;19.53;45.36;102674.84;5091061;28;20050;-73
2022/11/13 06:06:49;;;;;;;8.40;6.20;;;;;;;19.54;45.34;102673.06;5091105;28;20046;-72
2022/11/13 06:09:33;;;;;;;8.05;6.22;;;;;;;19.47;45.45;102659.53;5091016;28;20736;-72
2022/11/13 06:12:17;;;;;;;7.90;6.07;;;;;;;19.51;45.34;102660.09;5088597;28;20054;-72
2022/11/13 06:15:01;;;;;;;10.18;6.18;;;;;;;19.51;45.31;102660.09;5089158;28;20128;-72
2022/11/13 06:17:45;;;;;;;7.85;6.00;;;;;;;19.41;45.51;102656.59;5096843;28;20169;-73
2022/11/13 06:20:29;;;;;;;8.35;5.38;;;;;;;19.43;45.74;102654.66;5093890;28;20089;-72
2022/11/13 06:23:13;;;;;;;8.35;5.72;;;;;;;19.42;45.53;102659.09;5087285;28;20054;-72
2022/11/13 06:26:03;;;;;;;9.18;5.43;;;;;;;19.47;45.26;102656.88;5096636;28;20054;-72
2022/11/13 06:28:47;;;;;;;9.10;6.13;;;;;;;19.50;45.30;102658.41;5096418;28;20096;-72
2022/11/13 06:31:34;;;;;;;7.18;5.55;;;;;;;19.42;45.52;102661.75;5087230;28;20299;-72
2022/11/13 06:34:18;;;;;;;8.52;6.00;;;;;;;19.41;45.36;102651.31;5092267;28;20094;-73
2022/11/13 06:37:02;;;;;;;7.15;5.80;;;;;;;19.50;45.11;102661.06;5086055;28;20071;-72
2022/11/13 06:39:46;;;;;;;8.65;5.88;;;;;;;19.48;45.34;102657.72;5088655;28;20572;-73
2022/11/13 06:42:30;;;;;;;7.15;5.43;;;;;;;19.48;45.25;102657.72;5088538;28;20593;-73
2022/11/13 06:45:14;;;;;;;7.90;5.50;;;;;;;19.45;45.32;102660.63;5093793;28;20520;-73
2022/11/13 06:47:58;;;;;;;8.18;5.82;;;;;;;19.46;45.28;102660.50;5092884;28;20101;-73
2022/11/13 06:50:42;;;;;;;6.97;5.30;;;;;;;19.47;45.31;102650.75;5094726;28;20050;-72
2022/11/13 06:53:26;;;;;;;7.65;6.00;;;;;;;19.49;45.15;102662.03;5089431;28;20513;-73
2022/11/13 06:56:10;;;;;;;7.97;5.47;;;;;;;19.47;45.16;102659.53;5093469;28;20311;-72
2022/11/13 06:58:55;;;;;;;7.70;5.78;;;;;;;19.48;45.13;102661.19;5087733;28;20050;-72
2022/11/13 07:01:39;;;;;;;8.02;5.57;;;;;;;19.47;45.17;102669.25;5088034;28;20063;-72
2022/11/13 07:04:23;;;;;;;7.90;5.90;;;;;;;19.48;45.26;102668.28;5092129;28;20078;-72
2022/11/13 07:07:07;;;;;;;8.27;5.65;;;;;;;19.35;45.49;102671.16;5081205;28;20650;-72
2022/11/13 07:09:51;;;;;;;7.20;5.82;;;;;;;19.40;45.37;102668.97;5093836;28;20051;-72
2022/11/13 07:12:35;;;;;;;8.38;5.97;;;;;;;19.45;45.12;102672.03;5096786;28;20085;-73
2022/11/13 07:15:19;;;;;;;8.73;6.10;;;;;;;19.33;45.39;102675.72;5098912;28;20436;-72
2022/11/13 07:18:08;;;;;;;6.60;5.47;;;;;;;19.38;45.29;102665.59;5090977;28;20163;-73
2022/11/13 07:20:52;;;;;;;11.30;6.85;;;;;;;19.38;45.35;102675.31;5090358;28;20067;-73
2022/11/13 07:23:41;;;;;;;7.75;5.80;;;;;;;19.43;45.18;102670.50;5088560;28;20100;-72
2022/11/13 07:26:25;;;;;;;7.43;6.18;;;;;;;19.43;45.28;102670.50;5089837;28;20092;-73
2022/11/13 07:29:10;;;;;;;7.80;6.15;;;;;;;19.36;45.23;102662.25;5090603;28;20057;-72
2022/11/13 07:31:54;;;;;;;8.18;5.93;;;;;;;19.42;45.20;102659.09;5088946;28;20042;-73
2022/11/13 07:34:38;;;;;;;8.23;6.13;;;;;;;19.44;45.15;102666.88;5088482;28;20151;-72
2022/11/13 07:37:22;;;;;;;8.68;5.80;;;;;;;19.43;45.13;102667.84;5085761;28;20066;-72
2022/11/13 07:40:07;;;;;;;9.00;6.22;;;;;;;19.30;45.53;102662.78;5090844;28;20628;-72
2022/11/13 07:43:01;;;;;;;7.55;5.45;;;;;;;19.36;45.34;102666.69;5091173;28;20129;-73
2022/11/13 07:45:45;;;;;;;6.25;5.13;;;;;;;19.35;45.41;102663.22;5089046;28;20043;-72
2022/11/13 07:48:29;;;;;;;7.55;5.57;;;;;;;19.43;44.93;102659.94;5083819;28;20805;-72
2022/11/13 07:51:13;;;;;;;9.07;5.97;;;;;;;19.39;45.19;102663.78;5091167;28;20531;-72
2022/11/13 07:53:57;;;;;;;8.43;6.22;;;;;;;19.32;45.47;102656.41;5084517;28;20067;-72
2022/11/13 07:56:42;;;;;;;8.02;5.70;;;;;;;19.30;45.46;102662.78;5089323;28;20062;-72
2022/11/13 07:59:25;;;;;;;8.57;5.45;;;;;;;19.42;45.04;102656.47;5086826;28;20081;-72
2022/11/13 08:02:14;;;;;;;8.80;5.55;;;;;;;19.37;45.20;102656.00;5089076;28;20092;-72
2022/11/13 08:04:58;;;;;;;9.25;6.20;;;;;;;19.38;45.24;102648.91;5090287;28;20054;-70
2022/11/13 08:07:45;;;;;;;7.32;5.30;;;;;;;19.37;45.22;102655.16;5088229;28;20533;-72
2022/11/13 08:10:29;;;;;;;7.65;5.50;;;;;;;19.38;45.11;102646.25;5088685;28;20148;-71
2022/11/13 08:13:13;;;;;;;8.25;5.55;;;;;;;19.32;45.28;102650.28;5095743;28;20050;-70
2022/11/13 08:15:59;;;;;;;7.70;5.63;;;;;;;19.40;45.05;102650.47;5093494;28;20084;-70
2022/11/13 08:18:43;;;;;;;7.38;5.28;;;;;;;19.37;45.09;102650.72;5091256;28;20058;-71
2022/11/13 08:21:27;;;;;;;9.25;6.00;;;;;;;19.41;44.96;102651.31;5087933;28;20458;-70
2022/11/13 08:24:11;;;;;;;8.70;6.75;;;;;;;19.40;45.02;102653.13;5092269;28;20097;-71
2022/11/13 08:26:56;;;;;;;7.95;5.68;;;;;;;19.50;44.58;102647.84;5089004;28;20087;-70
2022/11/13 08:29:40;;;;;;;10.50;7.18;;;;;;;19.51;44.57;102650.34;5094099;28;20752;-70
2022/11/13 08:32:25;;;;;;;7.63;5.82;;;;;;;19.44;44.48;102633.38;5090404;28;20085;-71
2022/11/13 08:35:10;;;;;;;8.27;5.80;;;;;;;19.40;44.92;102641.72;5093849;28;20051;-71
2022/11/13 08:37:54;;;;;;;8.88;6.65;;;;;;;19.43;44.74;102641.44;5091215;28;20684;-71
2022/11/13 08:40:38;;;;;;;8.27;5.97;;;;;;;19.45;44.78;102629.75;5095952;28;20124;-70
2022/11/13 08:43:22;;;;;;;8.35;6.05;;;;;;;19.41;44.98;102632.81;5095750;28;20476;-71
2022/11/13 08:46:06;;;;;;;8.07;6.32;;;;;;;19.45;44.72;102626.28;5095227;28;20085;-71
2022/11/13 08:48:50;;;;;;;8.35;6.43;;;;;;;19.48;44.66;102621.56;5089639;28;20109;-72
2022/11/13 08:51:34;;;;;;;9.57;6.78;;;;;;;19.46;44.78;102618.22;5096309;28;20542;-72
2022/11/13 08:54:19;;;;;;;9.07;6.07;;;;;;;19.46;44.80;102618.22;5092790;28;20097;-72
2022/11/13 08:57:03;;;;;;;9.05;6.40;;;;;;;19.51;44.53;102609.88;5093332;28;20058;-70
2022/11/13 08:59:47;;;;;;;8.73;6.03;;;;;;;19.45;44.76;102611.28;5093228;28;20213;-71
2022/11/13 09:02:31;;;;;;;8.95;5.97;;;;;;;19.45;44.67;102602.50;5094004;28;20113;-71
2022/11/13 09:05:15;;;;;;;8.07;6.22;;;;;;;19.44;44.60;102590.28;5092448;28;21671;-72
2022/11/13 09:08:00;;;;;;;9.27;6.53;;;;;;;19.45;44.75;102592.78;5086711;28;20120;-70
2022/11/13 09:10:44;;;;;;;11.07;6.90;;;;;;;19.43;44.94;102593.88;5089785;28;20047;-70
2022/11/13 09:13:28;;;;;;;8.00;5.97;;;;;;;19.33;45.15;102599.97;5091107;28;20055;-70
2022/11/13 09:16:12;;;;;;;8.57;6.35;;;;;;;19.41;45.04;102585.25;5090555;28;20142;-70
2022/11/13 09:18:56;;;;;;;9.10;6.88;;;;;;;19.35;45.02;102591.91;5087008;28;20938;-71
2022/11/13 09:21:40;;;;;;;10.05;6.45;;;;;;;19.41;44.88;102587.91;5089390;28;20405;-70
2022/11/13 09:24:24;;;;;;;9.57;6.70;;;;;;;19.42;44.78;102581.66;5085342;28;20093;-71
2022/11/13 09:27:08;;;;;;;9.52;6.90;;;;;;;19.48;44.77;102584.56;5093134;28;20042;-72
2022/11/13 09:29:52;;;;;;;9.55;6.30;;;;;;;19.36;45.24;102582.16;5089314;28;20516;-71
2022/11/13 09:32:36;;;;;;;8.00;6.25;;;;;;;19.42;45.17;102579.84;5089758;28;20090;-71
2022/11/13 09:35:32;;;;;;;10.35;6.55;;;;;;;19.39;45.23;102577.47;5086979;28;20129;-70
2022/11/13 09:38:16;;;;;;;11.25;7.18;;;;;;;19.41;45.31;102582.63;5091881;28;20078;-71
2022/11/13 09:41:09;;;;;;;9.18;6.10;;;;;;;19.30;45.64;102579.09;5095063;28;20177;-71
2022/11/13 09:43:58;;;;;;;9.63;6.57;;;;;;;19.39;45.36;102584.53;5094373;28;20059;-71
2022/11/13 09:46:51;;;;;;;8.90;6.22;;;;;;;19.41;45.27;102580.81;5091782;28;20065;-71
2022/11/13 09:49:42;;;;;;;9.63;6.45;;;;;;;19.29;45.44;102574.78;5092884;28;20083;-71
2022/11/13 09:52:32;;;;;;;9.55;6.63;;;;;;;19.34;45.32;102574.38;5087830;28;20142;-71
2022/11/13 09:55:18;;;;;;;;;;;;;;;19.40;45.15;102580.94;5089778;28;20098;-71
2022/11/13 09:58:11;;;;;;;9.93;6.35;;;;;;;19.40;45.26;102583.59;5092551;28;19921;-71
2022/11/13 10:00:59;;;;;;;11.27;7.05;;;;;;;19.33;45.34;102578.00;5092070;28;20043;-70
2022/11/13 10:03:48;;;;;;;10.30;7.10;;;;;;;19.30;45.57;102575.63;5090436;28;20116;-70
2022/11/13 10:06:57;;;;;;;11.32;6.38;;;;;;;19.39;45.29;102568.69;5088347;28;20047;-72
2022/11/13 10:09:53;;;;;;;10.27;6.63;;;;;;;19.37;45.25;102560.91;5087502;28;20063;-71
2022/11/13 10:12:38;;;;;;;9.63;5.90;;;;;;;19.26;45.48;102561.84;5088750;28;20516;-71
2022/11/13 10:15:24;;;;;;;10.48;6.63;;;;;;;19.30;45.37;102563.25;5091858;28;20081;-71
2022/11/13 10:18:24;;;;;;;8.40;6.25;;;;;;;19.33;45.40;102562.97;5088090;28;20059;-70
2022/11/13 10:21:15;;;;;;;;;;;;;;;19.43;45.10;102567.47;5084525;28;20126;-70
2022/11/13 10:24:04;;;;;;;8.68;6.57;;;;;;;19.40;45.14;102555.38;5084907;28;19922;-70
2022/11/13 10:26:48;;;;;;;9.15;6.45;;;;;;;19.39;45.13;102553.69;5091193;28;20132;-71
2022/11/13 10:29:32;;;;;;;10.18;6.88;;;;;;;19.32;45.28;102550.75;5086813;28;20093;-70
2022/11/13 10:32:26;;;;;;;11.40;7.20;;;;;;;19.25;45.69;102548.78;5087650;28;20055;-70
2022/11/13 10:35:40;;;;;;;12.40;7.18;;;;;;;19.29;45.70;102555.47;5087219;28;20042;-69
2022/11/13 10:38:24;;;;;;;12.85;7.20;;;;;;;19.35;45.57;102556.72;5091730;28;20116;-69
2022/11/13 10:41:20;;;;;;;10.02;6.68;;;;;;;19.34;45.56;102553.25;5088415;28;20051;-70
2022/11/13 10:44:19;;;;;;;10.65;6.60;;;;;;;19.28;45.67;102556.44;5096399;28;20054;-70
2022/11/13 10:47:14;;;;;;;9.52;6.25;;;;;;;19.31;45.66;102551.72;5090714;28;20539;-69
2022/11/13 10:50:10;;;;;;;8.82;6.63;;;;;;;19.31;45.75;102549.06;5088569;28;20054;-70
2022/11/13 10:52:56;;;;;;;9.80;6.65;;;;;;;19.38;45.56;102535.31;5090856;28;20046;-70
2022/11/13 10:55:40;;;;;;;10.43;6.60;;;;;;;19.33;45.78;102531.28;5090731;28;20051;-69
2022/11/13 10:58:24;;;;;;;10.23;6.85;;;;;;;19.31;45.60;102525.28;5092887;28;20074;-70
2022/11/13 11:01:22;;;;;;;8.73;6.60;;;;;;;19.30;45.87;102528.91;5092864;28;20173;-69
2022/11/13 11:04:11;;;;;;;10.45;6.70;;;;;;;19.37;45.82;102529.19;5091306;28;20100;-70
2022/11/13 11:07:10;;;;;;;9.70;6.13;;;;;;;19.37;45.63;102518.63;5097432;28;20050;-70
2022/11/13 11:09:54;;;;;;;10.85;6.88;;;;;;;19.29;45.87;102524.59;5095665;28;20058;-70
2022/11/13 11:12:38;;;;;;;9.18;6.22;;;;;;;19.31;45.78;102519.19;5097051;28;20047;-70
2022/11/13 11:15:41;;;;;;;7.90;6.03;;;;;;;19.39;45.73;102516.72;5095623;28;20069;-70
2022/11/13 11:18:33;;;;;;;8.85;6.20;;;;;;;19.41;45.58;102506.00;5086782;28;20523;-70
2022/11/13 11:21:24;;;;;;;10.15;6.45;;;;;;;19.35;45.79;102506.53;5091555;28;20807;-70
2022/11/13 11:24:13;;;;;;;8.18;6.22;;;;;;;19.33;45.85;102499.56;5090698;28;20086;-70
2022/11/13 11:27:08;;;;;;;9.43;6.25;;;;;;;19.37;45.83;102488.72;5095802;28;20084;-70
2022/11/13 11:30:20;;;;;;;12.02;5.88;;;;;;;19.47;45.58;102494.88;5094447;28;20049;-70
2022/11/13 11:33:11;;;;;;;8.18;6.00;;;;;;;19.44;45.66;102485.44;5099985;28;20081;-70
2022/11/13 11:36:10;;;;;;;10.20;6.57;;;;;;;19.35;45.95;102491.50;5093579;28;20080;-69
2022/11/13 11:39:17;;;;;;;11.70;6.57;;;;;;;19.39;46.01;102481.50;5099689;28;20402;-71
2022/11/13 11:42:07;;;;;;;9.75;5.78;;;;;;;19.33;46.19;102486.38;5069673;28;20129;-71
2022/11/13 11:44:56;;;;;;;11.85;6.15;;;;;;;19.42;46.03;102470.69;5096781;28;20041;-71
2022/11/13 11:47:40;;;;;;;9.43;6.72;;;;;;;19.38;46.12;102470.09;5094425;28;20070;-71
2022/11/13 11:50:42;;;;;;;8.07;5.72;;;;;;;19.28;46.29;102470.09;5096452;28;20654;-71
2022/11/13 11:53:38;;;;;;;10.40;6.05;;;;;;;19.46;45.88;102469.44;5094478;28;20100;-70
2022/11/13 11:56:28;;;;;;;8.80;6.30;;;;;;;19.36;46.08;102469.41;5092212;28;20043;-71
2022/11/13 11:59:34;;;;;;;10.55;6.53;;;;;;;19.37;45.88;102465.78;5091990;28;20805;-70
2022/11/13 12:02:45;;;;;;;9.40;6.15;;;;;;;19.31;46.19;102459.25;5091261;28;20049;-71
2022/11/13 12:06:08;;;;;;;11.15;6.75;;;;;;;19.33;46.16;102448.56;5087619;28;20082;-71
2022/11/13 12:09:12;;;;;;;9.80;7.18;;;;;;;19.42;45.91;102441.63;5101508;28;20063;-71
2022/11/13 12:12:08;;;;;;;8.73;5.78;;;;;;;19.38;45.92;102448.97;5093608;28;20047;-71
2022/11/13 12:15:03;;;;;;;9.43;6.25;;;;;;;19.40;45.86;102438.28;5092612;28;20058;-71
2022/11/13 12:18:10;;;;;;;8.85;6.05;;;;;;;19.37;46.08;102436.72;5098022;28;20046;-71
2022/11/13 12:21:03;;;;;;;9.13;6.45;;;;;;;19.37;45.94;102426.16;5097753;28;20046;-71
2022/11/13 12:24:00;;;;;;;8.45;5.75;;;;;;;19.40;45.84;102433.84;5099920;28;20058;-70
2022/11/13 12:27:08;;;;;;;9.48;6.47;;;;;;;19.47;45.86;102426.19;5092345;28;20049;-70
2022/11/13 12:30:10;;;;;;;9.65;6.93;;;;;;;19.37;46.07;102415.59;5079178;28;20093;-70
2022/11/13 12:33:19;;;;;;;10.00;6.25;;;;;;;19.41;46.17;102416.19;5096016;28;20104;-71
2022/11/13 12:36:04;;;;;;;10.77;6.68;;;;;;;19.31;46.05;102409.06;5097049;28;20141;-71
2022/11/13 12:39:01;;;;;;;10.75;6.82;;;;;;;19.39;46.02;102410.19;5096314;28;20104;-71
2022/11/13 12:41:59;;;;;;;9.18;6.10;;;;;;;19.41;45.91;102392.41;5112911;27;20054;-71
2022/11/13 12:45:01;;;;;;;7.57;5.93;;;;;;;19.31;46.08;102395.03;5100128;28;20228;-71
2022/11/13 12:47:48;;;;;;;8.88;6.28;;;;;;;19.39;45.90;102395.19;5098426;28;20082;-71
2022/11/13 12:50:32;;;;;;;6.95;6.07;;;;;;;19.38;45.94;102388.22;5092814;28;20055;-71
2022/11/13 12:53:26;;;;;;;9.93;6.15;;;;;;;19.39;45.70;102370.56;5103230;28;20058;-71
2022/11/13 12:56:30;;;;;;;10.13;5.60;;;;;;;19.40;45.88;102377.53;5095527;28;20054;-71
2022/11/13 12:59:17;;;;;;;8.80;6.40;;;;;;;19.35;46.11;102377.09;5094145;28;20096;-71